Time;durP1;ratioP1;P1;durP2;ratioP2;P2;SDS_P1;SDS_P2;PMS_P1;PMS_P2;Temp;Humidity;BMP_temperature;BMP_pressure;BME280_temperature;BME280_humidity;BME280_pressure;Samples;Min_cycle;Max_cycle;Signal;HPM_P1;HPM_P2
2022/01/12 00:00:01;;;;;;;11.32;9.00;;;;;;;-2.49;100.00;97436.00;5012191;28;24447;-72
2022/01/12 00:02:28;;;;;;;10.65;8.93;;;;;;;-2.32;100.00;97441.31;5012495;28;24433;-72
2022/01/12 00:04:54;;;;;;;10.50;8.60;;;;;;;-2.27;100.00;97444.75;5012144;28;24472;-72
2022/01/12 00:07:20;;;;;;;11.82;9.23;;;;;;;-2.23;100.00;97446.50;5011969;28;24425;-72
2022/01/12 00:09:47;;;;;;;9.77;8.40;;;;;;;-2.26;100.00;97446.50;5012333;28;24427;-72
2022/01/12 00:12:13;;;;;;;12.82;8.25;;;;;;;-2.22;100.00;97438.09;5012046;28;24435;-72
2022/01/12 00:14:41;;;;;;;10.60;8.35;;;;;;;-2.14;100.00;97440.72;5011866;28;24857;-72
2022/01/12 00:17:08;;;;;;;8.55;7.70;;;;;;;-2.18;100.00;97439.84;5011634;28;24427;-73
2022/01/12 00:19:34;;;;;;;9.18;7.72;;;;;;;-2.12;100.00;97439.91;5011820;28;24447;-73
2022/01/12 00:22:01;;;;;;;10.17;7.63;;;;;;;-2.16;100.00;97440.69;5012014;28;24454;-73
2022/01/12 00:24:40;;;;;;;9.15;7.45;;;;;;;-2.14;100.00;97439.03;5011611;28;24417;-72
2022/01/12 00:35:20;;;;;;;8.60;7.57;;;;;;;-2.51;100.00;97442.75;5011391;28;24527;-73
2022/01/12 00:37:47;;;;;;;10.07;7.25;;;;;;;-2.76;100.00;97447.41;5011533;28;24432;-72
2022/01/12 00:40:13;;;;;;;10.57;7.53;;;;;;;-2.85;100.00;97446.44;5011409;28;24450;-72
2022/01/12 00:42:40;;;;;;;7.30;6.53;;;;;;;-2.81;100.00;97445.66;5011474;28;24455;-73
2022/01/12 00:45:09;;;;;;;8.30;7.32;;;;;;;-2.71;100.00;97443.28;5011586;28;24432;-74
2022/01/12 00:47:35;;;;;;;8.35;7.43;;;;;;;-2.80;100.00;97449.88;5011264;28;24424;-73
2022/01/12 00:50:02;;;;;;;10.18;6.95;;;;;;;-2.82;100.00;97451.53;5011535;28;24413;-72
2022/01/12 00:52:28;;;;;;;6.57;5.90;;;;;;;-2.69;100.00;97448.38;5011468;28;24420;-72
2022/01/12 00:54:55;;;;;;;9.13;6.95;;;;;;;-2.66;100.00;97448.44;5011090;28;24437;-72
2022/01/12 00:57:21;;;;;;;7.60;6.80;;;;;;;-2.68;100.00;97453.47;5010175;28;24458;-73
2022/01/12 00:59:47;;;;;;;8.05;7.07;;;;;;;-2.79;100.00;97451.59;5011419;28;24507;-73
2022/01/12 01:02:15;;;;;;;9.23;6.95;;;;;;;-2.69;100.00;97451.75;5011247;28;24424;-72
2022/01/12 01:04:42;;;;;;;8.48;7.03;;;;;;;-2.60;100.00;97452.72;5011415;28;24431;-73
2022/01/12 01:07:08;;;;;;;8.43;6.20;;;;;;;-2.54;100.00;97451.16;5010802;28;24463;-73
2022/01/12 01:09:39;;;;;;;9.25;6.53;;;;;;;-2.54;100.00;97460.44;5010974;28;24416;-72
2022/01/12 01:12:06;;;;;;;9.13;6.65;;;;;;;-2.50;100.00;97464.72;5010830;28;24954;-73
2022/01/12 01:14:45;;;;;;;7.97;6.77;;;;;;;-2.43;100.00;97461.47;5010994;28;24982;-72
2022/01/12 01:25:28;;;;;;;8.07;6.80;;;;;;;-2.41;100.00;97459.81;5010792;28;24511;-72
2022/01/12 01:25:42;;;;;;;9.25;6.75;;;;;;;-2.88;100.00;97467.50;5010453;28;24420;-72
2022/01/12 01:28:09;;;;;;;7.85;6.63;;;;;;;-3.16;100.00;97471.22;5011061;28;24424;-72
2022/01/12 01:30:38;;;;;;;8.82;6.20;;;;;;;-3.31;100.00;97476.88;5010954;28;24424;-72
2022/01/12 01:33:07;;;;;;;8.43;7.20;;;;;;;-3.43;100.00;97469.91;5010689;28;24990;-73
2022/01/12 01:35:38;;;;;;;8.75;7.20;;;;;;;-3.46;100.00;97472.38;5010471;28;24951;-72
2022/01/12 01:38:06;;;;;;;14.75;7.75;;;;;;;-3.64;100.00;97477.06;5010865;28;24782;-72
2022/01/12 01:40:36;;;;;;;9.93;7.43;;;;;;;-3.54;100.00;97481.50;5010761;28;24473;-72
2022/01/12 01:43:15;;;;;;;9.77;8.27;;;;;;;-3.52;100.00;97473.91;5010590;28;24973;-73
2022/01/12 01:53:57;;;;;;;16.80;10.48;;;;;;;-3.39;100.00;97448.00;5010899;28;25129;-72
2022/01/12 01:56:24;;;;;;;11.23;9.75;;;;;;;-3.30;100.00;97454.91;5010287;28;24425;-72
2022/01/12 01:58:50;;;;;;;14.18;9.65;;;;;;;-3.39;100.00;97459.81;5010613;28;24417;-72
2022/01/12 02:01:17;;;;;;;30.00;11.30;;;;;;;-3.51;100.00;97457.91;5010407;28;24881;-72
2022/01/12 02:03:44;;;;;;;13.80;10.35;;;;;;;-3.72;100.00;97455.81;5010065;28;24440;-72
2022/01/12 02:06:12;;;;;;;13.32;10.32;;;;;;;-3.75;100.00;97456.59;5009921;28;24431;-72
2022/01/12 02:08:39;;;;;;;11.82;9.43;;;;;;;-3.50;100.00;97462.16;5014201;28;24416;-72
2022/01/12 02:11:06;;;;;;;13.52;9.93;;;;;;;-3.61;100.00;97464.47;5014420;28;24427;-72
2022/01/12 02:13:33;;;;;;;14.60;9.35;;;;;;;-3.50;100.00;97474.81;5014351;28;24416;-72
2022/01/12 02:15:59;;;;;;;16.90;9.85;;;;;;;-3.40;100.00;97471.63;5013864;28;24478;-72
2022/01/12 02:18:39;;;;;;;10.48;8.80;;;;;;;-3.70;100.00;97480.34;5014165;28;24428;-73
2022/01/12 02:35:21;;;;;;;11.32;8.98;;;;;;;-3.86;100.00;97475.78;5013979;28;24494;-73
2022/01/12 02:40:47;;;;;;;12.45;7.78;;;;;;;-3.45;100.00;97463.97;4968130;28;24559;-72
2022/01/12 02:43:17;;;;;;;11.60;8.77;;;;;;;-3.68;100.00;97465.16;5015071;28;25025;-72
2022/01/12 02:51:17;;;;;;;11.70;9.02;;;;;;;-3.60;100.00;97461.09;5015112;28;25001;-73
2022/01/12 02:53:44;;;;;;;11.43;8.63;;;;;;;-3.51;100.00;97452.84;5014999;28;24420;-72
2022/01/12 02:56:13;;;;;;;13.40;9.10;;;;;;;-3.35;100.00;97454.84;5014238;28;24468;-72
2022/01/12 02:58:41;;;;;;;10.75;8.55;;;;;;;-3.48;100.00;97451.22;5014336;28;24427;-73
2022/01/12 03:01:33;;;;;;;8.98;8.07;;;;;;;-3.60;100.00;97457.72;5014350;28;24448;-73
2022/01/12 03:04:03;;;;;;;13.65;10.73;;;;;;;-3.95;100.00;97460.41;5014193;28;24432;-73
2022/01/12 03:06:33;;;;;;;12.35;9.27;;;;;;;-3.79;100.00;97461.56;5013628;28;24834;-73
2022/01/12 03:09:03;;;;;;;10.40;9.20;;;;;;;-4.00;100.00;97465.38;5014303;28;24431;-72
2022/01/12 03:11:31;;;;;;;16.67;9.88;;;;;;;-3.98;100.00;97466.25;5013414;28;24420;-72
2022/01/12 03:13:58;;;;;;;11.30;9.10;;;;;;;-3.90;100.00;97461.34;5013212;28;24532;-72
2022/01/12 03:16:26;;;;;;;12.20;9.88;;;;;;;-3.71;100.00;97465.09;5012845;28;24806;-72
2022/01/12 03:18:55;;;;;;;14.23;9.98;;;;;;;-3.88;100.00;97464.78;5012231;28;24573;-72
2022/01/12 03:21:24;;;;;;;14.15;9.10;;;;;;;-3.78;100.00;97453.13;5013117;28;24445;-72
2022/01/12 03:23:51;;;;;;;8.48;6.97;;;;;;;-3.67;100.00;97462.69;5013007;28;24431;-72
2022/01/12 03:26:20;;;;;;;11.15;7.90;;;;;;;-3.62;100.00;97470.38;5012626;28;24463;-73
2022/01/12 03:28:52;;;;;;;13.07;8.23;;;;;;;-3.60;100.00;97472.91;5012894;28;24420;-72
2022/01/12 03:31:21;;;;;;;11.20;7.93;;;;;;;-3.65;100.00;97476.22;5012976;28;24429;-72
2022/01/12 03:33:55;;;;;;;9.23;8.23;;;;;;;-3.63;100.00;97483.88;5013104;28;24432;-72
2022/01/12 03:36:40;;;;;;;8.65;7.75;;;;;;;-3.56;100.00;97487.34;5012497;28;25056;-73
2022/01/12 03:39:10;;;;;;;8.68;7.82;;;;;;;-3.38;100.00;97499.53;5012834;28;24562;-72
2022/01/12 03:41:38;;;;;;;7.57;6.72;;;;;;;-3.48;100.00;97495.97;5012703;28;24445;-72
2022/01/12 03:44:07;;;;;;;8.43;7.10;;;;;;;-3.82;100.00;97496.94;5012242;28;24424;-72
2022/01/12 03:46:37;;;;;;;10.80;7.10;;;;;;;-4.17;100.00;97490.31;5012506;28;24523;-72
2022/01/12 03:49:05;;;;;;;9.73;7.32;;;;;;;-4.12;100.00;97490.41;5012240;28;24969;-72
2022/01/12 03:51:32;;;;;;;9.15;6.93;;;;;;;-4.06;100.00;97493.06;5012495;28;24420;-72
2022/01/12 03:53:58;;;;;;;8.90;7.65;;;;;;;-4.34;100.00;97500.84;5012353;28;24420;-73
2022/01/12 03:56:25;;;;;;;9.70;7.68;;;;;;;-4.44;100.00;97499.81;5012127;28;24459;-72
2022/01/12 03:58:52;;;;;;;7.70;6.80;;;;;;;-4.36;100.00;97502.50;5012354;28;24432;-72
2022/01/12 04:01:19;;;;;;;9.80;7.28;;;;;;;-4.30;100.00;97503.50;5012256;28;24444;-72
2022/01/12 04:03:57;;;;;;;10.43;7.43;;;;;;;-4.46;100.00;97502.28;5012150;28;24906;-72
2022/01/12 04:09:07;;;;;;;13.18;9.15;;;;;;;-4.63;100.00;97498.53;5012074;28;24428;-72
2022/01/12 04:11:34;;;;;;;51.58;11.25;;;;;;;-4.71;100.00;97499.97;5012310;28;24423;-73
2022/01/12 04:14:03;;;;;;;25.45;11.10;;;;;;;-4.66;100.00;97504.34;5012626;28;24557;-73
2022/01/12 04:16:29;;;;;;;49.15;11.02;;;;;;;-4.77;100.00;97508.28;5011974;28;24428;-72
2022/01/12 04:18:55;;;;;;;242.93;12.77;;;;;;;-4.90;100.00;97504.56;5012092;28;24448;-72
2022/01/12 04:21:27;;;;;;;113.20;9.57;;;;;;;-4.78;100.00;97503.16;5011694;28;24444;-72
2022/01/12 04:23:54;;;;;;;15.07;9.82;;;;;;;-4.59;100.00;97491.88;5012081;28;24432;-72
2022/01/12 04:26:21;;;;;;;26.83;9.88;;;;;;;-4.40;100.00;97494.00;5011910;28;24416;-72
2022/01/12 04:28:47;;;;;;;58.00;10.43;;;;;;;-4.42;100.00;97498.16;5011816;28;24428;-72
2022/01/12 04:31:15;;;;;;;107.80;11.35;;;;;;;-4.54;100.00;97492.81;5011714;28;24420;-73
2022/01/12 04:33:43;;;;;;;92.53;10.88;;;;;;;-4.73;100.00;97502.47;5011672;28;24972;-72
2022/01/12 04:36:11;;;;;;;55.80;11.00;;;;;;;-4.71;100.00;97498.34;5011028;28;24431;-72
2022/01/12 04:38:40;;;;;;;23.13;10.10;;;;;;;-4.52;100.00;97496.25;5011965;28;25171;-73
2022/01/12 04:41:08;;;;;;;62.28;9.82;;;;;;;-4.55;100.00;97493.66;5011663;28;24439;-72
2022/01/12 04:43:36;;;;;;;46.53;9.85;;;;;;;-4.55;100.00;97498.69;5012233;28;24441;-72
2022/01/12 04:46:22;;;;;;;45.58;8.77;;;;;;;-4.55;100.00;97511.34;5011129;28;24424;-72
2022/01/12 04:49:06;;;;;;;84.60;10.02;;;;;;;-4.81;100.00;97528.41;5011864;28;24483;-73
2022/01/12 04:51:34;;;;;;;108.95;8.85;;;;;;;-5.08;100.00;97536.09;5011416;28;24968;-73
2022/01/12 04:54:00;;;;;;;79.68;8.50;;;;;;;-5.18;100.00;97538.41;5011635;28;24428;-72
2022/01/12 04:56:28;;;;;;;31.63;9.00;;;;;;;-5.08;100.00;97536.94;5010789;28;24428;-73
2022/01/12 04:58:55;;;;;;;26.05;8.98;;;;;;;-4.87;100.00;97546.78;5011392;28;25080;-72
2022/01/12 05:01:25;;;;;;;44.33;9.15;;;;;;;-5.12;100.00;97546.16;5011242;28;24444;-72
2022/01/12 05:07:09;;;;;;;15.73;8.75;;;;;;;-4.84;100.00;97553.59;4949898;28;24474;-72
2022/01/12 05:09:50;;;;;;;10.73;8.57;;;;;;;-4.66;100.00;97554.91;4950359;29;24505;-73
2022/01/12 05:15:08;;;;;;;60.47;9.40;;;;;;;-4.76;100.00;97555.47;5010989;28;24475;-72
2022/01/12 05:17:35;;;;;;;20.03;8.77;;;;;;;-4.78;100.00;97557.13;5010611;28;24439;-72
2022/01/12 05:20:04;;;;;;;50.80;8.68;;;;;;;-4.76;100.00;97558.00;5010656;28;24428;-73
2022/01/12 05:22:30;;;;;;;31.13;8.15;;;;;;;-4.69;100.00;97561.56;5011049;28;24416;-71
2022/01/12 05:24:57;;;;;;;58.50;7.77;;;;;;;-4.73;100.00;97567.34;5010944;28;24504;-73
2022/01/12 05:27:23;;;;;;;61.67;7.80;;;;;;;-4.83;100.00;97570.44;5010552;28;24428;-73
2022/01/12 05:29:50;;;;;;;29.45;7.72;;;;;;;-4.62;100.00;97566.81;5011276;28;24423;-73
2022/01/12 05:32:16;;;;;;;22.48;8.35;;;;;;;-4.49;100.00;97559.50;5010899;28;24779;-73
2022/01/12 05:34:43;;;;;;;22.63;7.70;;;;;;;-4.37;100.00;97562.38;5010398;28;24957;-72
2022/01/12 05:37:11;;;;;;;31.10;7.75;;;;;;;-4.35;100.00;97560.72;5010525;28;24495;-72
2022/01/12 05:39:38;;;;;;;22.50;8.90;;;;;;;-4.02;100.00;97565.72;5010878;28;24504;-72
2022/01/12 05:42:05;;;;;;;39.55;9.80;;;;;;;-4.06;100.00;97571.53;5013507;28;24479;-73
2022/01/12 05:44:34;;;;;;;11.20;9.27;;;;;;;-4.30;100.00;97568.41;5018513;28;24423;-72
2022/01/12 05:47:00;;;;;;;25.85;8.43;;;;;;;-4.32;100.00;97565.84;5041519;28;24440;-73
2022/01/12 05:49:36;;;;;;;17.38;9.40;;;;;;;-4.33;100.00;97564.16;5045283;28;24431;-72
2022/01/12 05:52:04;;;;;;;11.77;8.68;;;;;;;-4.38;100.00;97561.47;5050279;28;24435;-72
2022/01/12 05:54:32;;;;;;;27.33;9.85;;;;;;;-4.40;100.00;97563.13;5051601;28;24431;-72
2022/01/12 05:56:58;;;;;;;25.95;9.80;;;;;;;-4.62;100.00;97574.38;5057194;28;24431;-72
2022/01/12 05:59:25;;;;;;;14.63;10.13;;;;;;;-4.60;100.00;97576.94;5056732;28;24411;-73
2022/01/12 06:01:51;;;;;;;16.63;9.48;;;;;;;-4.51;100.00;97568.75;5058663;28;24478;-72
2022/01/12 06:04:18;;;;;;;23.13;8.88;;;;;;;-4.62;100.00;97581.97;5056907;28;24447;-71
2022/01/12 06:06:44;;;;;;;24.92;8.15;;;;;;;-4.90;100.00;97582.06;5056360;28;24426;-72
2022/01/12 06:09:11;;;;;;;26.45;7.95;;;;;;;-5.02;100.00;97594.38;5056827;28;24426;-73
2022/01/12 06:11:39;;;;;;;27.83;8.38;;;;;;;-5.15;100.00;97588.16;5045686;28;24439;-72
2022/01/12 06:14:07;;;;;;;9.85;8.85;;;;;;;-4.91;100.00;97578.69;5030822;28;25024;-72
2022/01/12 06:16:34;;;;;;;9.95;8.95;;;;;;;-4.71;100.00;97588.44;5017297;28;24444;-73
2022/01/12 06:19:00;;;;;;;15.90;10.60;;;;;;;-4.59;100.00;97593.00;5017153;28;24420;-72
2022/01/12 06:21:27;;;;;;;23.42;10.05;;;;;;;-4.58;100.00;97599.75;5033006;28;24502;-73
2022/01/12 06:23:53;;;;;;;13.15;8.68;;;;;;;-4.56;100.00;97604.06;5027908;28;24432;-74
2022/01/12 06:26:24;;;;;;;26.23;9.50;;;;;;;-4.81;100.00;97606.75;5036871;28;24481;-74
2022/01/12 06:29:15;;;;;;;12.57;9.07;;;;;;;-4.70;100.00;97605.34;5036991;28;24434;-72
2022/01/12 06:31:45;;;;;;;12.02;10.15;;;;;;;-4.55;100.00;97615.00;5016701;28;24431;-73
2022/01/12 06:34:11;;;;;;;14.57;11.20;;;;;;;-4.54;100.00;97606.59;5026322;28;24829;-72
2022/01/12 06:36:38;;;;;;;13.07;10.88;;;;;;;-4.54;100.00;97611.66;5036459;28;24415;-73
2022/01/12 06:39:07;;;;;;;15.00;11.32;;;;;;;-4.56;100.00;97615.81;5035927;28;24976;-73
2022/01/12 06:41:33;;;;;;;16.17;11.10;;;;;;;-4.67;100.00;97608.81;5036137;28;24455;-72
2022/01/12 06:44:01;;;;;;;12.95;10.57;;;;;;;-4.81;100.00;97602.53;5035347;28;24437;-73
2022/01/12 06:46:30;;;;;;;12.70;10.27;;;;;;;-4.84;100.00;97594.03;5036068;28;24422;-73
2022/01/12 06:48:57;;;;;;;17.25;10.45;;;;;;;-4.93;100.00;97582.88;5036435;28;24426;-73
2022/01/12 06:51:23;;;;;;;16.88;10.50;;;;;;;-5.05;100.00;97589.25;5036421;28;24470;-72
2022/01/12 06:53:52;;;;;;;11.82;10.32;;;;;;;-5.32;100.00;97584.28;5028242;28;24435;-73
2022/01/12 06:56:19;;;;;;;14.82;12.82;;;;;;;-5.40;100.00;97596.69;5024733;28;24428;-73
2022/01/12 06:58:45;;;;;;;15.38;13.05;;;;;;;-5.32;100.00;97604.50;5032959;28;24473;-73
2022/01/12 07:01:14;;;;;;;18.95;12.65;;;;;;;-5.38;100.00;97603.50;5013202;28;24538;-73
2022/01/12 07:03:40;;;;;;;13.65;10.90;;;;;;;-5.46;100.00;97609.13;5018836;28;24446;-75
2022/01/12 07:06:07;;;;;;;17.52;13.95;;;;;;;-5.36;100.00;97611.97;5032873;28;24478;-74
2022/01/12 07:08:34;;;;;;;15.05;11.57;;;;;;;-5.12;100.00;97610.94;5032954;28;24436;-75
2022/01/12 07:11:01;;;;;;;23.27;10.48;;;;;;;-5.25;100.00;97614.81;5029147;28;24436;-74
2022/01/12 07:13:28;;;;;;;13.55;11.23;;;;;;;-5.03;100.00;97611.22;5016577;28;24449;-73
2022/01/12 07:15:54;;;;;;;17.88;11.93;;;;;;;-4.84;100.00;97614.25;5015583;28;24491;-75
2022/01/12 07:18:24;;;;;;;15.88;11.73;;;;;;;-4.78;100.00;97619.44;5012867;28;24420;-73
2022/01/12 07:20:50;;;;;;;13.77;11.43;;;;;;;-5.03;100.00;97623.84;5014529;28;24527;-73
2022/01/12 07:23:17;;;;;;;16.45;11.70;;;;;;;-4.98;100.00;97627.34;5029139;28;24493;-73
2022/01/12 07:25:44;;;;;;;12.60;11.30;;;;;;;-4.97;100.00;97629.09;5031592;28;24829;-74
2022/01/12 07:28:10;;;;;;;36.55;14.40;;;;;;;-4.88;100.00;97620.88;5028836;28;24468;-75
2022/01/12 07:30:37;;;;;;;27.40;17.27;;;;;;;-4.82;100.00;97613.47;5020977;28;24455;-74
2022/01/12 07:33:03;;;;;;;29.90;19.05;;;;;;;-4.82;100.00;97626.13;5047750;28;24790;-74
2022/01/12 07:35:31;;;;;;;23.02;15.98;;;;;;;-4.81;100.00;97619.38;5033228;28;25040;-74
2022/01/12 07:37:57;;;;;;;16.27;11.35;;;;;;;-4.72;100.00;97610.34;5034241;28;24432;-72
2022/01/12 07:40:24;;;;;;;19.20;13.13;;;;;;;-4.86;100.00;97616.72;5031895;28;24471;-72
2022/01/12 07:42:51;;;;;;;19.48;15.00;;;;;;;-5.10;100.00;97624.50;5031739;28;24829;-72
2022/01/12 07:45:18;;;;;;;26.45;15.98;;;;;;;-4.97;100.00;97623.16;5029444;28;24860;-72
2022/01/12 07:47:45;;;;;;;15.00;12.48;;;;;;;-4.71;100.00;97634.84;5031377;28;24432;-71
2022/01/12 07:50:12;;;;;;;14.73;12.52;;;;;;;-4.83;100.00;97642.06;5032048;28;24489;-71
2022/01/12 07:52:40;;;;;;;14.27;11.18;;;;;;;-4.63;100.00;97647.69;5031776;28;24487;-72
2022/01/12 07:55:09;;;;;;;20.52;12.90;;;;;;;-4.68;100.00;97644.16;5029897;28;24428;-74
2022/01/12 07:57:36;;;;;;;18.30;13.25;;;;;;;-4.80;100.00;97659.84;5031143;28;24436;-74
2022/01/12 08:00:03;;;;;;;10.70;9.55;;;;;;;-4.98;100.00;97657.66;5025300;28;24435;-74
2022/01/12 08:02:30;;;;;;;11.65;9.88;;;;;;;-4.91;100.00;97658.72;5031176;28;25087;-75
2022/01/12 08:04:56;;;;;;;18.17;10.93;;;;;;;-4.71;100.00;97667.72;5030084;28;24427;-74
2022/01/12 08:07:23;;;;;;;23.67;17.35;;;;;;;-4.86;100.00;97677.38;5031107;28;24444;-73
2022/01/12 08:09:51;;;;;;;14.75;10.90;;;;;;;-4.80;100.00;97682.59;5030715;28;25009;-73
2022/01/12 08:12:17;;;;;;;10.00;9.00;;;;;;;-4.87;100.00;97690.81;5030779;28;24435;-73
2022/01/12 08:14:44;;;;;;;11.23;9.88;;;;;;;-4.80;100.00;97696.91;5029444;28;24470;-73
2022/01/12 08:17:10;;;;;;;11.15;9.63;;;;;;;-4.46;100.00;97698.69;5030674;28;24484;-73
2022/01/12 08:19:38;;;;;;;13.40;10.50;;;;;;;-4.06;100.00;97692.13;5031318;28;24431;-73
2022/01/12 08:22:05;;;;;;;10.65;9.45;;;;;;;-3.93;100.00;97686.53;5030972;28;24501;-74
2022/01/12 08:24:32;;;;;;;9.98;8.75;;;;;;;-3.84;100.00;97693.53;5030172;28;24435;-74
2022/01/12 08:26:59;;;;;;;11.20;9.20;;;;;;;-3.81;100.00;97707.13;5030530;28;24798;-75
2022/01/12 08:29:28;;;;;;;9.70;8.70;;;;;;;-3.72;100.00;97707.31;5030175;28;24440;-74
2022/01/12 08:31:55;;;;;;;10.60;9.23;;;;;;;-3.70;100.00;97705.69;5026533;28;24435;-74
2022/01/12 08:34:22;;;;;;;11.05;8.90;;;;;;;-3.70;100.00;97700.63;5041990;28;24972;-74
2022/01/12 08:36:48;;;;;;;9.63;8.60;;;;;;;-3.56;100.00;97698.44;5039122;28;24458;-74
2022/01/12 08:39:15;;;;;;;11.38;9.18;;;;;;;-3.43;100.00;97697.88;5030958;28;24436;-73
2022/01/12 08:41:41;;;;;;;11.10;9.85;;;;;;;-3.35;100.00;97689.59;5037340;28;24443;-74
2022/01/12 08:44:10;;;;;;;14.45;10.13;;;;;;;-3.18;100.00;97680.69;5029256;28;24505;-73
2022/01/12 08:46:38;;;;;;;13.20;11.73;;;;;;;-3.60;100.00;97693.25;5029976;28;24535;-75
2022/01/12 08:49:05;;;;;;;14.18;12.20;;;;;;;-3.96;100.00;97704.22;5030275;28;24479;-73
2022/01/12 08:51:32;;;;;;;13.15;10.88;;;;;;;-3.91;100.00;97695.91;5030547;28;24434;-73
2022/01/12 08:53:58;;;;;;;13.50;10.95;;;;;;;-4.00;100.00;97704.97;5030303;28;24435;-72
2022/01/12 08:56:24;;;;;;;12.40;11.00;;;;;;;-3.66;100.00;97704.09;5037185;28;24497;-73
2022/01/12 08:58:51;;;;;;;13.02;11.63;;;;;;;-3.41;100.00;97705.53;5035841;28;24459;-73
2022/01/12 09:01:19;;;;;;;15.80;11.68;;;;;;;-3.17;100.00;97706.06;5030648;28;24431;-73
2022/01/12 09:03:46;;;;;;;13.27;11.32;;;;;;;-2.99;100.00;97697.16;5029203;28;24435;-73
2022/01/12 09:06:13;;;;;;;12.50;11.20;;;;;;;-2.78;100.00;97710.28;5025158;28;24439;-73
2022/01/12 09:08:41;;;;;;;12.20;11.00;;;;;;;-2.64;100.00;97713.06;5030398;28;24474;-73
2022/01/12 09:11:08;;;;;;;13.27;11.90;;;;;;;-2.68;100.00;97716.38;5029228;28;24432;-74
2022/01/12 09:13:35;;;;;;;13.30;11.90;;;;;;;-2.40;100.00;97715.25;5029880;28;24515;-74
2022/01/12 09:16:06;;;;;;;17.00;12.40;;;;;;;-2.22;100.00;97712.22;5021168;28;24477;-73
2022/01/12 09:18:34;;;;;;;14.73;11.98;;;;;;;-2.03;100.00;97716.78;5029749;28;24519;-74
2022/01/12 09:21:01;;;;;;;14.80;11.57;;;;;;;-2.12;100.00;97720.81;5030216;28;24818;-74
2022/01/12 09:23:27;;;;;;;13.48;11.75;;;;;;;-1.89;100.00;97721.22;5028821;28;24510;-74
2022/01/12 09:25:54;;;;;;;12.93;11.60;;;;;;;-1.67;100.00;97725.84;5028315;28;24905;-73
2022/01/12 09:28:20;;;;;;;13.25;10.65;;;;;;;-1.55;100.00;97726.06;5029819;28;24439;-73
2022/01/12 09:30:47;;;;;;;13.63;11.43;;;;;;;-1.63;100.00;97744.53;5029192;28;24435;-74
2022/01/12 09:33:13;;;;;;;13.65;11.18;;;;;;;-1.46;100.00;97743.97;5029708;28;24434;-73
2022/01/12 09:35:43;;;;;;;13.60;11.45;;;;;;;-1.30;100.00;97742.56;5035464;28;24431;-74
2022/01/12 09:38:10;;;;;;;14.48;10.75;;;;;;;-1.14;100.00;97742.78;5029222;28;24517;-74
2022/01/12 09:40:38;;;;;;;12.23;10.73;;;;;;;-1.19;100.00;97739.28;5029622;28;24519;-72
2022/01/12 09:43:06;;;;;;;11.45;10.00;;;;;;;-0.88;100.00;97732.97;5021155;28;24479;-75
2022/01/12 09:45:33;;;;;;;14.90;11.23;;;;;;;-0.91;100.00;97726.16;5032584;28;24522;-75
2022/01/12 09:48:00;;;;;;;13.15;11.35;;;;;;;-0.79;100.00;97738.19;5028999;28;24443;-74
2022/01/12 09:50:26;;;;;;;13.02;11.48;;;;;;;-0.93;100.00;97760.88;5029753;28;24447;-75
2022/01/12 09:52:54;;;;;;;13.68;11.10;;;;;;;-0.90;100.00;97757.53;5029630;28;24484;-73
2022/01/12 09:55:21;;;;;;;13.32;11.85;;;;;;;-1.37;100.00;97755.13;5030391;28;24432;-74
2022/01/12 09:57:48;;;;;;;14.93;11.82;;;;;;;-1.82;100.00;97756.06;5028945;28;24530;-74
2022/01/12 10:00:22;;;;;;;11.50;10.30;;;;;;;-1.95;100.00;97760.09;5029372;28;24447;-74
2022/01/12 10:02:48;;;;;;;11.43;10.23;;;;;;;-1.92;100.00;97750.00;5028562;28;24564;-75
2022/01/12 10:05:15;;;;;;;15.20;13.45;;;;;;;-1.90;100.00;97763.56;5030165;28;24440;-75
2022/01/12 10:07:41;;;;;;;12.27;11.02;;;;;;;-1.56;100.00;97779.38;5034256;28;24447;-74
2022/01/12 10:10:14;;;;;;;18.02;11.68;;;;;;;-1.32;100.00;97771.31;5032225;28;25055;-74
2022/01/12 10:12:52;;;;;;;11.10;9.90;;;;;;;-0.83;100.00;97761.88;5025881;28;24435;-73
2022/01/12 10:15:19;;;;;;;11.07;9.63;;;;;;;-0.43;100.00;97758.16;5024457;28;24440;-73
2022/01/12 10:17:46;;;;;;;12.20;10.25;;;;;;;-0.29;100.00;97753.25;5038833;28;24447;-73
2022/01/12 10:20:17;;;;;;;10.93;9.82;;;;;;;-0.76;100.00;97766.22;5029401;28;24478;-73
2022/01/12 10:22:46;;;;;;;13.73;9.57;;;;;;;-0.49;100.00;97765.72;5026452;28;24474;-74
2022/01/12 10:25:19;;;;;;;11.73;8.98;;;;;;;-0.11;100.00;97763.63;5027416;28;24436;-74
2022/01/12 10:27:46;;;;;;;10.48;9.20;;;;;;;-0.45;100.00;97759.81;5020388;28;25023;-74
2022/01/12 10:30:20;;;;;;;12.10;10.15;;;;;;;-0.46;100.00;97767.44;5032769;28;24448;-73
2022/01/12 10:32:47;;;;;;;11.82;9.18;;;;;;;-0.25;100.00;97766.00;5033747;28;24432;-73
2022/01/12 10:35:13;;;;;;;10.27;9.27;;;;;;;-0.18;100.00;97768.66;5032554;28;24435;-73
2022/01/12 10:37:40;;;;;;;10.10;8.77;;;;;;;-0.15;100.00;97772.06;5033253;28;24484;-73
2022/01/12 10:40:09;;;;;;;10.55;8.82;;;;;;;0.06;100.00;97778.22;5032692;28;24436;-73
2022/01/12 10:42:37;;;;;;;10.25;9.13;;;;;;;0.39;100.00;97783.66;5032327;28;24497;-73
2022/01/12 10:45:06;;;;;;;10.60;9.50;;;;;;;0.61;100.00;97776.22;5031960;28;24431;-73
2022/01/12 10:47:33;;;;;;;12.18;9.57;;;;;;;0.85;97.92;97773.84;5032764;28;24436;-73
2022/01/12 10:50:01;;;;;;;10.10;9.10;;;;;;;0.96;98.65;97773.94;5033107;28;24442;-77
2022/01/12 10:52:29;;;;;;;11.32;9.57;;;;;;;1.12;99.54;97772.34;5032854;28;24957;-76
2022/01/12 10:54:58;;;;;;;11.32;10.05;;;;;;;1.35;97.60;97768.22;5032398;28;24469;-73
2022/01/12 10:57:28;;;;;;;12.20;9.53;;;;;;;1.52;95.06;97764.91;5038036;28;24431;-73
2022/01/12 11:00:07;;;;;;;11.45;9.10;;;;;;;1.27;92.50;97762.22;5035545;28;24439;-73
2022/01/12 11:02:35;;;;;;;9.45;8.30;;;;;;;1.20;95.04;97768.16;5032967;28;24451;-73
2022/01/12 11:05:04;;;;;;;12.85;8.80;;;;;;;1.17;97.01;97768.97;5032404;28;24431;-73
2022/01/12 11:07:31;;;;;;;12.88;9.27;;;;;;;1.11;95.62;97765.53;5032600;28;24419;-73
2022/01/12 11:09:59;;;;;;;10.50;8.82;;;;;;;0.66;95.13;97777.09;5032319;28;24431;-73
2022/01/12 11:12:28;;;;;;;8.30;7.45;;;;;;;1.10;100.00;97764.66;5032413;28;24435;-73
2022/01/12 11:14:54;;;;;;;8.68;7.60;;;;;;;1.15;96.72;97769.78;5031640;28;24798;-73
2022/01/12 11:17:23;;;;;;;8.77;7.93;;;;;;;1.17;96.90;97766.41;5031048;28;24423;-74
2022/01/12 11:20:02;;;;;;;9.95;8.52;;;;;;;1.34;95.89;97763.13;5031857;28;24441;-73
2022/01/12 11:22:42;;;;;;;8.93;8.02;;;;;;;1.04;98.08;97767.19;5052068;28;25078;-73
2022/01/12 11:25:18;;;;;;;9.38;8.48;;;;;;;1.07;98.56;97763.78;5044586;28;24438;-71
2022/01/12 11:27:47;;;;;;;12.18;8.48;;;;;;;1.10;94.82;97767.22;5043048;28;24435;-71
2022/01/12 11:30:20;;;;;;;10.13;7.65;;;;;;;0.81;95.19;97772.13;5020237;28;24436;-71
2022/01/12 11:32:57;;;;;;;9.90;8.73;;;;;;;1.25;96.75;97768.16;5012698;28;24503;-71
2022/01/12 11:35:28;;;;;;;11.47;10.27;;;;;;;0.97;95.44;97765.44;5032071;28;24491;-71
2022/01/12 11:37:59;;;;;;;9.90;8.38;;;;;;;0.95;97.09;97749.25;5040558;28;24482;-72
2022/01/12 11:40:36;;;;;;;12.07;9.33;;;;;;;0.98;95.22;97745.88;5037467;28;25002;-72
2022/01/12 11:43:05;;;;;;;11.27;9.03;;;;;;;1.17;95.82;97730.69;5031361;28;25000;-72
2022/01/12 11:45:32;;;;;;;10.63;8.90;;;;;;;0.99;93.01;97732.28;5025592;28;24447;-72
2022/01/12 11:47:59;;;;;;;9.63;8.63;;;;;;;1.12;96.87;97722.16;5031929;28;24427;-72
2022/01/12 11:50:26;;;;;;;11.32;9.80;;;;;;;1.28;96.54;97717.13;5021009;28;24463;-72
2022/01/12 11:52:53;;;;;;;10.57;9.45;;;;;;;0.61;93.22;97712.47;5036480;28;24985;-73
2022/01/12 11:55:21;;;;;;;12.77;8.20;;;;;;;0.66;96.81;97713.34;5031256;28;24518;-72
2022/01/12 11:57:49;;;;;;;9.83;8.90;;;;;;;0.67;100.00;97708.28;5031467;28;25080;-72
2022/01/12 12:00:18;;;;;;;9.40;8.55;;;;;;;0.88;96.45;97688.84;5031472;28;24521;-72
2022/01/12 12:02:47;;;;;;;9.45;8.25;;;;;;;0.94;97.52;97691.44;5031690;28;24534;-72
2022/01/12 12:05:17;;;;;;;10.88;9.55;;;;;;;1.08;99.24;97688.97;5014603;28;24443;-72
2022/01/12 12:07:45;;;;;;;10.27;9.25;;;;;;;1.11;95.76;97682.19;5011673;28;24459;-71
2022/01/12 12:10:14;;;;;;;8.65;7.82;;;;;;;1.16;92.45;97679.66;5025014;28;24435;-71
2022/01/12 12:12:41;;;;;;;10.70;9.32;;;;;;;0.92;94.04;97682.91;5032768;28;25035;-72
2022/01/12 12:15:10;;;;;;;9.85;8.85;;;;;;;1.04;95.81;97684.66;5024736;28;24436;-72
2022/01/12 12:17:39;;;;;;;11.65;9.82;;;;;;;1.14;97.46;97669.41;5051117;28;24971;-71